Terminal Aerodrome Forecast
Issued by NWS

Home | Current Version | Previous Version | Text Only | Print | Product List | Glossary On
Versions: 1 2 3 4 5 6 7 8 9 10 11 12 13 14 15 16 17
000
FTUS45 KRIW 210039 CCA
TAFCPR
TAF COR
KCPR 210039Z 2101/2124 08016KT P6SM -SHRA SCT016 OVC025
     FM210200 05014KT P6SM VCSH SCT007 OVC015
     FM211300 22008KT P6SM BKN020
     FM211800 24008KT P6SM SKC=

USA.gov is the U.S. government's official web portal to all federal, state and local government web resources and services.